Time;durP1;ratioP1;P1;durP2;ratioP2;P2;SDS_P1;SDS_P2;PMS_P1;PMS_P2;Temp;Humidity;BMP_temperature;BMP_pressure;BME280_temperature;BME280_humidity;BME280_pressure;Samples;Min_cycle;Max_cycle;Signal;HPM_P1;HPM_P2
2022/05/24 00:00:13;;;;;;;17.13;13.57;;;;;;;12.91;nan;98876.00;10498057;28;20131;-76
2022/05/24 00:05:17;;;;;;;18.70;14.80;;;;;;;13.26;nan;98901.59;10499293;28;20048;-76
2022/05/24 00:10:24;;;;;;;15.60;12.10;;;;;;;13.15;nan;98895.78;10495983;28;20429;-76
2022/05/24 00:15:30;;;;;;;11.35;9.52;;;;;;;12.97;nan;98947.22;10499376;28;20127;-76
2022/05/24 00:20:35;;;;;;;11.50;10.30;;;;;;;12.91;nan;98948.75;10497323;28;20036;-76
2022/05/24 00:25:44;;;;;;;14.02;10.32;;;;;;;13.06;nan;98932.72;10496981;28;20119;-77
2022/05/24 00:30:49;;;;;;;11.43;8.98;;;;;;;12.87;nan;98941.22;10494688;28;20510;-76
2022/05/24 00:35:52;;;;;;;15.43;11.13;;;;;;;13.20;nan;98956.22;10495947;28;20127;-77
2022/05/24 00:41:08;;;;;;;13.10;9.85;;;;;;;13.00;nan;98957.66;10496846;28;20473;-77
2022/05/24 00:46:16;;;;;;;11.82;10.52;;;;;;;12.88;nan;98969.84;10496290;28;20559;-77
2022/05/24 00:51:28;;;;;;;15.18;10.57;;;;;;;12.96;nan;98961.72;10501357;28;20086;-77
2022/05/24 00:56:56;;;;;;;15.93;10.40;;;;;;;12.91;nan;98970.31;10495882;28;20072;-76
2022/05/24 01:02:00;;;;;;;12.73;9.90;;;;;;;12.83;nan;98957.75;10493387;28;20155;-77
2022/05/24 01:07:04;;;;;;;21.48;13.18;;;;;;;12.43;nan;98963.22;10497029;28;20203;-77
2022/05/24 01:12:16;;;;;;;18.73;13.55;;;;;;;13.02;nan;98958.31;10492412;28;20041;-77
2022/05/24 01:17:19;;;;;;;18.02;13.35;;;;;;;13.03;nan;98960.03;10497199;28;20037;-77
2022/05/24 01:22:48;;;;;;;18.63;14.15;;;;;;;13.09;nan;98980.88;10496703;28;20119;-78
2022/05/24 01:27:53;;;;;;;20.92;15.48;;;;;;;13.20;nan;98993.97;10494905;28;20047;-78
2022/05/24 01:38:20;;;;;;;21.40;16.23;;;;;;;13.41;nan;98966.44;10496180;28;20166;-78
2022/05/24 01:43:27;;;;;;;23.05;15.55;;;;;;;13.58;nan;98958.25;10497068;28;20079;-78
2022/05/24 01:48:34;;;;;;;19.45;14.15;;;;;;;12.87;nan;98978.94;10492321;28;20210;-79
2022/05/24 01:53:42;;;;;;;19.90;12.85;;;;;;;13.24;nan;98979.13;10495899;28;20052;-78
2022/05/24 01:59:08;;;;;;;17.60;13.98;;;;;;;13.33;nan;98982.63;10492618;28;20047;-78
2022/05/24 02:04:11;;;;;;;23.85;16.67;;;;;;;13.51;nan;98974.28;10495761;28;20131;-79
2022/05/24 02:09:14;;;;;;;23.52;16.40;;;;;;;13.19;nan;98980.66;10495071;28;20116;-78
2022/05/24 02:14:23;;;;;;;20.92;15.95;;;;;;;13.43;nan;98987.81;10494527;28;20561;-78
2022/05/24 02:19:27;;;;;;;24.38;16.65;;;;;;;13.03;nan;98993.22;10493227;28;20123;-79
2022/05/24 02:24:30;;;;;;;24.63;17.25;;;;;;;13.03;nan;99012.06;10490165;28;20068;-79
2022/05/24 02:29:35;;;;;;;23.65;16.92;;;;;;;13.34;nan;99000.50;10497580;28;20050;-78
2022/05/24 02:34:38;;;;;;;29.27;18.77;;;;;;;13.69;nan;99004.53;10502299;28;20083;-78
2022/05/24 02:45:03;;;;;;;25.33;19.30;;;;;;;13.73;nan;98998.78;10495082;28;20064;-79
2022/05/24 02:50:09;;;;;;;28.30;20.50;;;;;;;13.49;nan;99003.28;10502588;28;20139;-79
2022/05/24 02:55:13;;;;;;;33.45;22.23;;;;;;;13.73;nan;98998.78;10500762;28;20098;-78
2022/05/24 03:00:21;;;;;;;34.10;22.73;;;;;;;13.80;nan;99008.69;10495940;28;20040;-79
2022/05/24 03:05:26;;;;;;;35.30;22.73;;;;;;;13.70;nan;98999.97;10495428;28;20084;-79
2022/05/24 03:10:30;;;;;;;30.27;22.52;;;;;;;13.90;nan;99001.22;10494399;28;20095;-79
2022/05/24 03:15:34;;;;;;;31.23;22.63;;;;;;;13.86;nan;99004.44;10494120;28;20470;-79
2022/05/24 03:20:37;;;;;;;33.25;23.98;;;;;;;13.80;nan;99006.00;10493391;28;20032;-78
2022/05/24 03:25:41;;;;;;;33.95;25.17;;;;;;;13.79;nan;99007.00;10499211;28;20079;-79
2022/05/24 03:30:45;;;;;;;35.67;26.45;;;;;;;13.59;nan;98997.69;10501363;28;20047;-79
2022/05/24 03:35:48;;;;;;;44.20;31.45;;;;;;;13.74;nan;99005.84;10500610;28;20123;-78
2022/05/24 03:40:51;;;;;;;44.50;32.92;;;;;;;13.74;nan;99004.03;10502139;28;20537;-77
2022/05/24 03:46:13;;;;;;;53.47;37.72;;;;;;;13.87;nan;98990.75;10502201;28;20473;-79
2022/05/24 03:51:16;;;;;;;50.05;36.75;;;;;;;14.00;nan;98979.38;10499973;28;20127;-78
2022/05/24 03:56:19;;;;;;;56.00;38.03;;;;;;;13.91;nan;98989.38;10502908;28;20083;-77
2022/05/24 04:01:23;;;;;;;51.88;35.35;;;;;;;13.90;nan;98990.41;10500709;28;20040;-77
2022/05/24 04:06:28;;;;;;;51.95;35.60;;;;;;;13.94;nan;98975.53;10495484;28;20119;-78
2022/05/24 04:11:32;;;;;;;45.60;31.73;;;;;;;13.78;nan;98972.94;10499947;28;20032;-79
2022/05/24 04:16:36;;;;;;;47.45;31.10;;;;;;;13.87;nan;98979.13;10496048;28;20067;-77
2022/05/24 04:21:39;;;;;;;37.67;27.52;;;;;;;13.94;nan;98972.00;10498999;28;20036;-77
2022/05/24 04:26:43;;;;;;;39.65;29.50;;;;;;;14.13;nan;98984.16;10496095;28;20040;-77
2022/05/24 04:31:47;;;;;;;38.20;27.92;;;;;;;14.21;nan;98986.81;10491904;28;20044;-77
2022/05/24 04:36:50;;;;;;;39.20;28.58;;;;;;;14.25;nan;98992.66;10508101;28;20048;-78
2022/05/24 04:47:17;;;;;;;32.63;25.07;;;;;;;14.11;nan;99008.63;10520044;28;20036;-78
2022/05/24 04:52:23;;;;;;;37.63;24.23;;;;;;;14.08;nan;99011.69;10527117;28;20278;-79
2022/05/24 04:57:27;;;;;;;34.45;22.70;;;;;;;14.23;nan;99011.75;10503158;28;20064;-78
2022/05/24 05:02:31;;;;;;;31.58;22.17;;;;;;;14.25;nan;99006.16;10503666;28;20145;-78
2022/05/24 05:07:34;;;;;;;32.45;20.55;;;;;;;14.45;nan;99023.56;10500020;28;20579;-79
2022/05/24 05:12:37;;;;;;;31.48;22.40;;;;;;;14.48;nan;99030.47;10499822;28;20115;-78
2022/05/24 05:17:42;;;;;;;32.72;21.00;;;;;;;14.41;nan;99024.13;10499009;28;20111;-78
2022/05/24 05:22:45;;;;;;;31.55;21.80;;;;;;;14.46;nan;99033.38;10497228;28;20059;-78
2022/05/24 05:27:48;;;;;;;27.67;18.52;;;;;;;14.27;nan;99044.66;10499658;28;20064;-78
2022/05/24 05:32:52;;;;;;;27.40;19.25;;;;;;;14.59;nan;99040.88;10499290;28;20045;-78
2022/05/24 05:37:55;;;;;;;30.70;19.55;;;;;;;14.77;nan;99054.84;10497791;28;20453;-78
2022/05/24 05:42:58;;;;;;;26.48;19.33;;;;;;;14.74;nan;99067.91;10504240;28;20044;-78
2022/05/24 05:48:02;;;;;;;26.38;19.00;;;;;;;14.89;nan;99047.16;10509353;28;20068;-79
2022/05/24 05:53:05;;;;;;;24.27;19.42;;;;;;;14.68;nan;99061.38;10495209;28;20072;-78
2022/05/24 05:58:09;;;;;;;22.88;18.75;;;;;;;14.90;nan;99061.50;10497139;28;20532;-78
2022/05/24 06:03:13;;;;;;;29.25;21.08;;;;;;;14.74;nan;99076.03;10497244;28;20064;-78
2022/05/24 06:08:16;;;;;;;26.70;19.73;;;;;;;14.79;nan;99084.41;10494185;28;20131;-77
2022/05/24 06:13:23;;;;;;;22.92;17.58;;;;;;;14.96;nan;99085.09;10495718;28;20033;-78
2022/05/24 06:18:27;;;;;;;25.48;19.40;;;;;;;15.06;nan;99093.78;10495069;28;20044;-78
2022/05/24 06:23:30;;;;;;;26.00;16.88;;;;;;;14.78;nan;99086.28;10496971;28;20489;-78
2022/05/24 06:28:33;;;;;;;27.00;18.52;;;;;;;14.79;nan;99096.06;10495924;28;20044;-77
2022/05/24 06:33:37;;;;;;;21.95;18.33;;;;;;;14.67;nan;99113.72;10497183;28;20044;-78
2022/05/24 06:38:40;;;;;;;22.10;18.95;;;;;;;14.27;nan;99145.41;10496185;28;20101;-77
2022/05/24 06:43:43;;;;;;;24.05;18.42;;;;;;;14.07;nan;99153.13;10497597;28;20037;-77
2022/05/24 06:48:48;;;;;;;27.05;19.77;;;;;;;13.71;nan;99166.25;10496615;28;20174;-77
2022/05/24 06:53:52;;;;;;;30.90;22.17;;;;;;;13.30;nan;99170.88;10493359;28;20119;-76
2022/05/24 07:02:25;;;;;;;34.70;20.55;;;;;;;12.85;nan;99189.28;10493743;28;20152;-78
2022/05/24 07:04:19;;;;;;;;;;;;;;;12.90;nan;99195.03;10500966;28;20119;-77
2022/05/24 07:09:23;;;;;;;34.03;20.20;;;;;;;12.09;nan;99222.59;10500156;28;20440;-77
2022/05/24 07:14:28;;;;;;;32.53;19.60;;;;;;;11.61;nan;99248.28;10500135;28;20063;-77
2022/05/24 07:19:32;;;;;;;18.92;9.80;;;;;;;10.98;nan;99257.34;10495572;28;20520;-77
2022/05/24 07:24:36;;;;;;;15.52;10.50;;;;;;;11.62;nan;99275.00;10498305;28;20054;-77
2022/05/24 07:29:39;;;;;;;30.77;17.55;;;;;;;10.84;nan;99283.75;10498447;28;20041;-77
2022/05/24 07:34:44;;;;;;;29.02;17.70;;;;;;;11.28;nan;99299.13;10494019;28;20049;-77
2022/05/24 07:39:47;;;;;;;27.92;13.93;;;;;;;10.93;nan;99294.56;10498653;28;20123;-77
2022/05/24 07:50:20;;;;;;;20.50;11.60;;;;;;;10.73;nan;99301.94;10498344;28;20365;-77
2022/05/24 07:55:22;;;;;;;24.25;12.07;;;;;;;10.95;nan;99314.91;10498136;28;20115;-76
2022/05/24 08:00:26;;;;;;;23.50;12.13;;;;;;;11.04;nan;99315.81;10497985;28;20736;-77
2022/05/24 08:05:33;;;;;;;26.75;12.70;;;;;;;11.31;nan;99314.09;10498065;28;20060;-77
2022/05/24 08:10:38;;;;;;;25.60;13.75;;;;;;;11.38;nan;99302.56;10494819;28;20170;-77
2022/05/24 08:15:42;;;;;;;20.00;12.52;;;;;;;11.53;nan;99299.31;10497064;28;20194;-76
2022/05/24 08:20:47;;;;;;;17.42;11.93;;;;;;;11.66;nan;99287.13;10497915;28;20123;-77
2022/05/24 08:25:51;;;;;;;18.65;11.27;;;;;;;11.79;nan;99291.22;10497707;28;20052;-77
2022/05/24 08:30:54;;;;;;;14.68;10.20;;;;;;;11.63;nan;99316.19;10496748;28;20139;-76
2022/05/24 08:35:59;;;;;;;16.15;11.25;;;;;;;11.57;nan;99332.94;10495705;28;20568;-77
2022/05/24 08:41:03;;;;;;;17.02;11.75;;;;;;;11.61;nan;99334.34;10489605;28;59271;-76
2022/05/24 08:51:39;;;;;;;18.20;13.52;;;;;;;12.11;nan;99345.25;10495417;28;20162;-77
2022/05/24 09:03:07;;;;;;;15.70;11.65;;;;;;;12.86;88.31;99314.94;10475770;28;20406;-80
2022/05/24 09:08:25;;;;;;;17.35;13.20;;;;;;;12.98;86.61;99328.97;10470450;28;20053;-80
2022/05/24 09:20:33;;;;;;;15.95;12.23;;;;;;;13.00;84.26;99337.69;10519361;27;20449;-78
2022/05/24 09:25:36;;;;;;;18.55;11.77;;;;;;;12.55;83.58;99329.00;10495362;28;20533;-78
2022/05/24 09:30:43;;;;;;;14.85;9.82;;;;;;;13.32;80.30;99330.69;10516359;28;20113;-78
2022/05/24 09:35:49;;;;;;;12.27;10.55;;;;;;;13.84;79.94;99346.53;10515148;28;20082;-80
2022/05/24 09:40:55;;;;;;;9.00;6.13;;;;;;;14.16;74.63;99353.75;10535848;28;20056;-80
2022/05/24 09:46:04;;;;;;;13.50;7.32;;;;;;;13.67;76.48;99351.97;10566741;28;20044;-80
2022/05/24 09:51:12;;;;;;;8.77;6.20;;;;;;;13.55;78.16;99360.56;10517879;28;20040;-80
2022/05/24 09:56:21;;;;;;;5.55;4.40;;;;;;;13.90;74.29;99378.25;10481250;28;20036;-79
2022/05/24 10:01:35;;;;;;;9.93;5.18;;;;;;;14.03;74.31;99385.84;10525157;28;20048;-79
2022/05/24 10:06:42;;;;;;;4.07;2.90;;;;;;;14.32;69.56;99398.78;10503711;28;20044;-80
2022/05/24 10:11:52;;;;;;;3.92;3.22;;;;;;;14.56;69.96;99401.44;10507040;28;20041;-80
2022/05/24 10:17:03;;;;;;;4.38;2.83;;;;;;;14.58;68.27;99415.59;10499861;28;20451;-80
2022/05/24 10:22:19;;;;;;;2.72;2.22;;;;;;;13.65;68.23;99429.53;10477994;28;20060;-80
2022/05/24 10:27:31;;;;;;;7.32;4.18;;;;;;;13.93;70.01;99431.91;10503271;28;20582;-80
2022/05/24 10:38:28;;;;;;;3.80;3.05;;;;;;;14.65;64.09;99437.41;10498591;28;20477;-80
2022/05/24 10:43:45;;;;;;;7.30;4.20;;;;;;;15.31;64.27;99442.53;10500497;28;20044;-81
2022/05/24 10:49:01;;;;;;;4.90;2.95;;;;;;;15.54;61.55;99431.75;10489119;28;20045;-80
2022/05/24 10:54:10;;;;;;;3.80;3.30;;;;;;;14.58;62.25;99447.19;10486791;28;20431;-80
2022/05/24 10:59:22;;;;;;;5.22;4.20;;;;;;;15.23;61.85;99455.06;10493593;28;20144;-79
2022/05/24 11:04:34;;;;;;;3.75;3.40;;;;;;;15.88;58.66;99425.91;10501313;28;20094;-80
2022/05/24 11:09:42;;;;;;;4.65;4.00;;;;;;;14.83;61.15;99440.69;10473327;28;20504;-79
2022/05/24 11:14:50;;;;;;;4.30;3.90;;;;;;;14.67;62.90;99446.16;10498757;28;20076;-80
2022/05/24 11:19:55;;;;;;;3.72;3.03;;;;;;;14.13;61.46;99464.81;10494410;28;20098;-79
2022/05/24 11:25:06;;;;;;;4.10;3.70;;;;;;;14.39;63.12;99464.63;10480186;28;20048;-81
2022/05/24 11:30:13;;;;;;;4.07;3.78;;;;;;;14.35;63.44;99469.50;10482830;28;20045;-81
2022/05/24 11:35:27;;;;;;;3.85;3.00;;;;;;;15.64;59.60;99462.13;10508091;28;20110;-79
2022/05/24 11:40:36;;;;;;;8.15;2.83;;;;;;;15.52;58.91;99472.50;10482306;28;20037;-80
2022/05/24 11:45:55;;;;;;;4.20;2.42;;;;;;;16.32;56.82;99461.25;10483136;28;20041;-79
2022/05/24 11:51:35;;;;;;;3.35;1.48;;;;;;;16.84;53.87;99467.66;10456817;28;20048;-78
2022/05/24 11:56:39;;;;;;;5.18;1.50;;;;;;;15.77;55.64;99485.88;10490911;28;20053;-79
2022/05/24 12:01:49;;;;;;;3.83;1.50;;;;;;;15.44;56.50;99495.06;10489281;28;20105;-79
2022/05/24 12:12:47;;;;;;;2.92;1.30;;;;;;;16.82;52.84;99494.13;10484779;28;20077;-81
2022/05/24 12:17:53;;;;;;;6.32;1.67;;;;;;;15.91;54.40;99502.19;10483926;28;20398;-82
2022/05/24 12:23:19;;;;;;;4.47;1.20;;;;;;;16.25;52.72;99509.03;10490135;28;20041;-81
2022/05/24 12:28:28;;;;;;;3.25;1.40;;;;;;;15.73;52.94;99517.06;10476564;28;20041;-79
2022/05/24 12:33:38;;;;;;;6.97;2.05;;;;;;;16.73;51.90;99503.34;10497895;28;20048;-81
2022/05/24 12:38:48;;;;;;;4.43;1.63;;;;;;;17.80;49.09;99501.00;10486870;28;20033;-80
2022/05/24 12:43:58;;;;;;;5.25;1.25;;;;;;;16.83;51.43;99519.38;10483961;28;20045;-82
2022/05/24 12:49:15;;;;;;;5.28;1.85;;;;;;;16.57;52.09;99516.06;10500794;28;20044;-81
2022/05/24 12:54:28;;;;;;;4.85;1.50;;;;;;;16.56;52.53;99502.69;10523528;28;20106;-81
2022/05/24 12:59:36;;;;;;;5.10;2.00;;;;;;;16.75;51.57;99512.16;10502207;28;20068;-81
2022/05/24 13:04:39;;;;;;;2.45;1.40;;;;;;;17.67;50.33;99509.84;10481254;28;20056;-80
2022/05/24 13:09:56;;;;;;;2.17;1.50;;;;;;;19.18;48.15;99513.22;10480776;28;20048;-80
2022/05/24 13:15:02;;;;;;;3.88;1.70;;;;;;;18.18;48.46;99492.59;10476089;28;20045;-80
2022/05/24 13:20:07;;;;;;;3.20;1.42;;;;;;;18.65;45.87;99503.84;10497474;28;20032;-79
2022/05/24 13:25:16;;;;;;;3.35;1.27;;;;;;;16.83;49.58;99522.06;10478866;28;20094;-79
2022/05/24 13:35:56;;;;;;;2.65;1.80;;;;;;;15.04;60.47;99533.91;10490809;28;20570;-81
2022/05/24 13:41:00;;;;;;;1.58;1.20;;;;;;;15.66;58.11;99523.19;10496769;28;20067;-80
2022/05/24 13:46:19;;;;;;;3.50;1.40;;;;;;;16.65;56.48;99525.13;10503518;28;20049;-83
2022/05/24 13:51:30;;;;;;;8.20;1.60;;;;;;;18.00;53.62;99512.09;10467850;28;20403;-79
2022/05/24 13:56:39;;;;;;;1.58;1.20;;;;;;;18.52;46.84;99504.63;10493477;28;20053;-80
2022/05/24 14:01:42;;;;;;;4.35;1.40;;;;;;;18.63;47.80;99508.69;10491169;28;20036;-80
2022/05/24 14:06:49;;;;;;;4.50;1.75;;;;;;;18.32;47.76;99516.19;10484589;28;20049;-81
2022/05/24 14:11:56;;;;;;;2.88;1.10;;;;;;;19.63;46.54;99524.53;10506792;28;20052;-81
2022/05/24 14:17:06;;;;;;;;;;;;;;;18.85;46.53;99537.53;10508432;28;20505;-79
2022/05/24 14:22:10;;;;;;;2.70;1.50;;;;;;;18.60;45.02;99531.66;10501166;28;19921;-80
2022/05/24 14:27:14;;;;;;;2.33;1.33;;;;;;;18.57;45.13;99534.78;10493115;28;20050;-78
2022/05/24 14:32:17;;;;;;;2.95;1.30;;;;;;;18.58;47.14;99548.16;10485874;28;20045;-79
2022/05/24 14:37:19;;;;;;;4.95;1.60;;;;;;;18.43;45.70;99550.16;10477454;28;20041;-80
2022/05/24 14:42:24;;;;;;;1.60;1.50;;;;;;;17.08;48.03;99568.75;10473122;28;20047;-80
2022/05/24 14:47:27;;;;;;;2.97;1.40;;;;;;;18.54;44.86;99567.78;10477417;28;20048;-81
2022/05/24 14:52:30;;;;;;;1.60;1.17;;;;;;;18.32;45.16;99570.53;10485211;28;20049;-79
2022/05/24 14:57:34;;;;;;;8.88;1.23;;;;;;;18.44;42.60;99595.31;10492193;28;20110;-80
2022/05/24 15:02:40;;;;;;;1.40;1.25;;;;;;;18.02;46.04;99586.13;10502697;28;20044;-78
2022/05/24 15:18:30;;;;;;;2.03;1.40;;;;;;;18.29;44.89;99605.41;10418207;28;20049;-77
2022/05/24 15:23:34;;;;;;;3.08;1.58;;;;;;;16.51;48.70;99616.25;10426768;28;20049;-78
2022/05/24 15:28:43;;;;;;;5.30;1.42;;;;;;;16.30;49.40;99635.88;10458732;28;20106;-77
2022/05/24 15:33:45;;;;;;;9.98;1.90;;;;;;;16.36;49.00;99648.72;10457764;28;20462;-78
2022/05/24 15:38:48;;;;;;;2.78;1.80;;;;;;;16.18;50.63;99638.16;10455694;28;20587;-77
2022/05/24 15:43:53;;;;;;;7.95;2.47;;;;;;;16.39;50.99;99640.22;10438631;28;59474;-77
2022/05/24 15:48:56;;;;;;;3.05;2.10;;;;;;;16.26;51.42;99650.81;10413380;28;20045;-77
2022/05/24 15:53:59;;;;;;;2.47;2.00;;;;;;;16.32;52.44;99660.97;10413394;28;20041;-77
2022/05/24 15:59:06;;;;;;;4.75;1.92;;;;;;;16.61;50.90;99668.34;10409256;28;20057;-77
2022/05/24 16:04:09;;;;;;;3.92;1.70;;;;;;;15.49;52.48;99667.72;10413149;28;20053;-77
2022/05/24 16:14:38;;;;;;;3.72;1.15;;;;;;;15.62;51.37;99681.56;10412017;28;20103;-76
2022/05/24 16:19:42;;;;;;;0.90;0.90;;;;;;;15.77;50.74;99689.81;10410430;28;20552;-77
2022/05/24 16:24:45;;;;;;;0.93;0.80;;;;;;;16.06;50.29;99691.03;10412891;28;20041;-77
2022/05/24 16:29:49;;;;;;;0.70;0.70;;;;;;;16.17;50.10;99701.47;10394223;28;20041;-76
2022/05/24 16:34:53;;;;;;;2.40;1.00;;;;;;;16.94;48.39;99706.06;10412548;28;20043;-77
2022/05/24 16:39:55;;;;;;;1.13;1.00;;;;;;;17.13;47.88;99711.00;10454772;28;20037;-77
2022/05/24 16:45:00;;;;;;;1.90;1.10;;;;;;;18.75;46.63;99713.81;10447983;28;20049;-78
2022/05/24 16:50:03;;;;;;;6.00;1.48;;;;;;;19.65;43.27;99723.22;10424612;28;20041;-77
2022/05/24 17:00:29;;;;;;;1.90;1.75;;;;;;;24.79;34.47;99727.41;10415985;28;20482;-77
2022/05/24 17:05:34;;;;;;;3.63;2.17;;;;;;;22.50;38.35;99733.59;10414757;28;20100;-77
2022/05/24 17:10:37;;;;;;;4.13;2.28;;;;;;;21.51;40.31;99756.53;10408758;28;20052;-78
2022/05/24 17:15:42;;;;;;;3.28;2.90;;;;;;;19.83;42.91;99758.97;10413999;28;20057;-78
2022/05/24 17:20:46;;;;;;;4.43;4.00;;;;;;;18.04;46.10;99763.38;10412479;28;20064;-77
2022/05/24 17:25:50;;;;;;;4.57;4.28;;;;;;;16.91;48.62;99774.25;10413822;28;20068;-77
2022/05/24 17:30:54;;;;;;;5.20;4.28;;;;;;;16.58;49.18;99775.28;10413321;28;20144;-78
2022/05/24 17:35:57;;;;;;;4.70;4.30;;;;;;;17.94;46.48;99773.69;10415091;28;20049;-77
2022/05/24 17:41:06;;;;;;;4.30;3.80;;;;;;;18.65;45.04;99776.72;10419993;28;20049;-77
2022/05/24 17:46:11;;;;;;;5.03;4.63;;;;;;;19.32;44.18;99775.50;10420219;28;20057;-77
2022/05/24 17:51:16;;;;;;;4.40;3.95;;;;;;;19.40;43.83;99782.72;10422238;28;20041;-77
2022/05/24 17:56:19;;;;;;;4.85;4.00;;;;;;;17.34;47.27;99778.19;10439775;28;20414;-78
2022/05/24 18:01:23;;;;;;;4.63;4.18;;;;;;;16.78;49.72;99782.97;10421071;28;20038;-78
2022/05/24 18:06:26;;;;;;;4.70;4.40;;;;;;;16.04;51.81;99791.41;10420858;28;20049;-77
2022/05/24 18:11:29;;;;;;;5.65;4.75;;;;;;;15.79;52.37;99785.22;10420361;28;20095;-77
2022/05/24 18:16:35;;;;;;;5.45;4.30;;;;;;;15.78;52.89;99785.41;10413514;28;20053;-77
2022/05/24 18:21:42;;;;;;;5.53;5.03;;;;;;;15.64;53.73;99784.25;10417272;28;20034;-77
2022/05/24 18:37:37;;;;;;;6.80;4.28;;;;;;;15.38;54.11;99790.69;10416847;28;20041;-77
2022/05/24 18:42:40;;;;;;;5.95;4.30;;;;;;;15.31;54.83;99810.47;10417521;28;20046;-77
2022/05/24 18:47:48;;;;;;;4.32;3.67;;;;;;;15.15;54.49;99816.72;10416657;28;20045;-77
2022/05/24 18:52:51;;;;;;;4.40;3.72;;;;;;;14.86;55.28;99822.59;10414355;28;20045;-77
2022/05/24 18:57:54;;;;;;;4.07;3.78;;;;;;;14.79;55.41;99828.66;10408286;28;20045;-78
2022/05/24 19:02:59;;;;;;;4.25;3.85;;;;;;;14.64;56.14;99838.41;10415190;28;20048;-77
2022/05/24 19:08:02;;;;;;;4.85;3.95;;;;;;;14.59;56.80;99841.63;10420016;28;20064;-78
2022/05/24 19:13:05;;;;;;;5.43;4.22;;;;;;;14.44;57.20;99845.94;10416715;28;20087;-77
2022/05/24 19:18:09;;;;;;;5.07;4.25;;;;;;;14.30;57.41;99851.94;10416157;28;20502;-77
2022/05/24 19:23:12;;;;;;;5.45;4.55;;;;;;;14.29;57.30;99863.72;10415594;28;20049;-77
2022/05/24 19:28:16;;;;;;;5.28;4.88;;;;;;;14.24;57.32;99872.31;10413053;28;20053;-75
2022/05/24 19:33:21;;;;;;;4.88;4.47;;;;;;;14.19;57.56;99866.56;10412658;28;20061;-77
2022/05/24 19:38:24;;;;;;;7.35;4.63;;;;;;;14.18;58.09;99878.38;10418353;28;20029;-76
2022/05/24 19:43:27;;;;;;;6.40;5.53;;;;;;;14.19;58.33;99879.22;10416019;28;20049;-76
2022/05/24 19:48:34;;;;;;;5.47;4.82;;;;;;;14.08;58.91;99888.44;10413529;28;20041;-75
2022/05/24 19:53:37;;;;;;;5.18;4.68;;;;;;;14.10;59.20;99891.84;10397372;28;20045;-75
2022/05/24 19:58:42;;;;;;;5.80;5.18;;;;;;;14.07;59.66;99900.22;10408585;28;20129;-75
2022/05/24 20:03:46;;;;;;;7.03;5.97;;;;;;;14.03;60.46;99901.56;10405464;28;20049;-76
2022/05/24 20:08:49;;;;;;;6.85;6.13;;;;;;;14.01;60.79;99907.13;10406401;28;20092;-76
2022/05/24 20:13:52;;;;;;;6.43;4.90;;;;;;;13.94;61.25;99924.97;10401765;28;20034;-76
2022/05/24 20:18:56;;;;;;;4.90;4.55;;;;;;;13.77;62.05;99924.00;10401115;28;20037;-77
2022/05/24 20:23:59;;;;;;;5.40;4.63;;;;;;;13.72;62.30;99920.91;10411381;28;20445;-76
2022/05/24 20:29:02;;;;;;;4.88;4.47;;;;;;;13.68;62.91;99928.47;10407048;28;20053;-76
2022/05/24 20:34:06;;;;;;;6.40;5.80;;;;;;;13.62;62.76;99931.78;10402419;28;20042;-76
2022/05/24 20:39:09;;;;;;;6.95;6.25;;;;;;;13.55;63.25;99928.03;10399492;28;20041;-75
2022/05/24 20:44:12;;;;;;;7.32;6.63;;;;;;;13.49;63.51;99934.88;10415036;28;20506;-76
2022/05/24 20:49:16;;;;;;;9.98;7.32;;;;;;;13.47;63.74;99939.59;10407173;28;20447;-77
2022/05/24 20:54:19;;;;;;;5.95;5.43;;;;;;;13.47;63.74;99925.25;10397519;28;20414;-77
2022/05/24 20:59:23;;;;;;;7.60;5.97;;;;;;;13.49;63.47;99937.59;10396691;28;20052;-77
2022/05/24 21:04:28;;;;;;;6.63;5.90;;;;;;;13.64;63.12;99943.28;10405245;28;20068;-76
2022/05/24 21:09:33;;;;;;;5.80;4.63;;;;;;;13.53;63.65;99950.78;10401413;28;20037;-76
2022/05/24 21:14:36;;;;;;;5.28;4.32;;;;;;;13.51;63.69;99956.31;10430396;22;20493;-80
2022/05/24 21:19:39;;;;;;;5.85;4.03;;;;;;;13.40;63.76;99957.38;10458208;28;20049;-80
2022/05/24 21:24:47;;;;;;;8.35;5.00;;;;;;;13.44;64.22;99964.19;10454960;28;20573;-80
2022/05/24 21:29:50;;;;;;;5.63;5.03;;;;;;;13.52;64.33;99958.03;10444781;28;20113;-79
2022/05/24 21:34:53;;;;;;;9.02;4.53;;;;;;;13.47;64.41;99963.88;10445416;28;20041;-79
2022/05/24 21:40:12;;;;;;;8.00;5.00;;;;;;;13.38;64.48;99961.22;10442611;28;20037;-79
2022/05/24 21:45:15;;;;;;;6.53;4.82;;;;;;;13.27;64.38;99959.56;10446370;28;20061;-81
2022/05/24 21:50:18;;;;;;;4.95;4.18;;;;;;;13.14;64.43;99959.94;10436306;28;20042;-81
2022/05/24 21:55:23;;;;;;;5.75;3.70;;;;;;;12.99;64.28;99967.66;10446529;28;20061;-80
2022/05/24 22:00:47;;;;;;;8.68;3.72;;;;;;;12.90;64.11;99975.81;10411171;28;20053;-79
2022/05/24 22:05:50;;;;;;;6.60;2.80;;;;;;;12.76;64.49;99982.56;10436445;28;20049;-80
2022/05/24 22:10:54;;;;;;;3.30;2.92;;;;;;;12.84;64.39;99988.06;10434003;28;20056;-81
2022/05/24 22:15:57;;;;;;;6.50;3.42;;;;;;;12.81;64.24;99991.91;10443427;28;20049;-81
2022/05/24 22:21:01;;;;;;;3.80;2.90;;;;;;;12.71;64.00;100001.00;10433656;28;20355;-80
2022/05/24 22:26:07;;;;;;;3.97;2.70;;;;;;;12.58;64.14;100004.88;10446974;28;20068;-81
2022/05/24 22:31:10;;;;;;;3.85;2.03;;;;;;;12.52;64.07;100007.31;10452853;28;20052;-81
2022/05/24 22:36:13;;;;;;;2.75;2.08;;;;;;;12.45;64.14;100022.34;10456142;28;20045;-81
2022/05/24 22:41:19;;;;;;;8.73;2.47;;;;;;;12.23;64.25;100024.38;10452807;28;20056;-77
2022/05/24 22:46:24;;;;;;;5.70;1.80;;;;;;;12.25;64.38;100021.50;10453878;28;20041;-81
2022/05/24 22:51:30;;;;;;;3.63;1.98;;;;;;;12.13;64.75;100026.22;10443673;28;20109;-82
2022/05/24 22:56:34;;;;;;;6.25;2.25;;;;;;;12.10;64.84;100045.34;10451534;28;20117;-82
2022/05/24 23:01:37;;;;;;;7.03;2.10;;;;;;;12.14;64.68;100042.19;10450686;28;20426;-82
2022/05/24 23:06:40;;;;;;;6.05;2.38;;;;;;;12.17;64.46;100036.53;10453393;28;20056;-82
2022/05/24 23:11:44;;;;;;;5.65;3.28;;;;;;;12.08;64.84;100033.88;10448292;28;20052;-82
2022/05/24 23:16:47;;;;;;;4.55;2.30;;;;;;;12.07;64.76;100041.09;10457509;28;20067;-80
2022/05/24 23:21:51;;;;;;;;;;;;;;;12.02;64.92;100037.97;10445293;28;20041;-81
2022/05/24 23:26:55;;;;;;;3.20;2.78;;;;;;;12.00;64.81;100036.41;10418895;28;19925;-80
2022/05/24 23:32:01;;;;;;;4.97;2.47;;;;;;;11.99;64.88;100040.94;10441133;28;20046;-80
2022/05/24 23:37:05;;;;;;;4.38;3.65;;;;;;;11.94;64.91;100041.38;10446064;28;20551;-78
2022/05/24 23:42:10;;;;;;;4.82;2.78;;;;;;;11.88;65.32;100041.94;10429726;28;20038;-78
2022/05/24 23:47:13;;;;;;;3.90;2.85;;;;;;;11.89;65.50;100048.16;10440102;28;20037;-80
2022/05/24 23:52:16;;;;;;;3.63;2.53;;;;;;;11.93;65.35;100057.69;10442637;28;20113;-80
2022/05/24 23:57:21;;;;;;;3.50;3.00;;;;;;;11.87;65.56;100051.00;10443365;28;20047;-81
